Архив погоды в Магнитогорске

Метеограмма Магнитогорск
Воскресенье, 27 Мая
Время местн. Темп Ветер Видим Явления Облачность нижн/средн/верх Атм. давл. Влжн Точка росы ВНГО R Сост. почвы Tg s
Напр Скр Прв ур.ст ур.м изм
05:00 +2.2° С-З 3 - 20 км - ясно 733 768 0 55% -6° более 2.5 км - - - -
02:00 +1.8° С 3 - 10 км - ясно 733 768 +0.4 62% -4.6° более 2.5 км - - - -
Суббота, 26 Мая
Время местн. Темп Ветер Видим Явления Облачность нижн/средн/верх Атм. давл. Влжн Точка росы ВНГО R Сост. почвы Tg s
Напр Скр Прв ур.ст ур.м изм
23:00 +4.3° С 4 - 10 км - переменная облачность 732 768 +1.5 54% -4.2° 1 км - - - -
20:00 +7.1° С,С-В 6 10 20 км - облачно 731 766 +1.1 49% -2.8° 1 км 0 - - -
17:00 +7.6° С,С-В 10 14 20 км - облачно 730 765 +1.1 49% -2.3° 1 км - - - -
14:00 +5.9° С,С-В 11 17 20 км - облачно 729 764 +2 62% -0.9° 1 км - - - -
11:00 +6.1° С,С-В 11 16 20 км - облачно 727 761 +0.9 61% -0.8° 1 км - - - -
08:00 +4.8° С 8 12 20 км - преимущественно облачно 726 761 +0.5 74% +0.5° 1 км 12 Влажная (без луж) - -
05:00 +4.1° С,С-В 10 15 20 км небо без изменений {дождь} облачно 725 760 +0.5 83% +1.4° - - - - -
02:00 +6.4° С 5 - 10 км слабый непрерывный дождь облачно 725 759 -0.5 86% +4.3° - - - - -
Пятница, 25 Мая
Время местн. Темп Ветер Видим Явления Облачность нижн/средн/верх Атм. давл. Влжн Точка росы ВНГО R Сост. почвы Tg s
Напр Скр Прв ур.ст ур.м изм
23:00 +7.4° С 6 10 10 км гроза {ливневые осадки} облачно 725 760 +1.1 84% +4.9° 1 км - - - -
20:00 +13.6° С 3 - 20 км ливневый дождь облачно 724 758 -0.3 79% +10.1° 1 км 1 - - -
17:00 +17.1° С 3 - 20 км небо без изменений {дождь} преимущественно облачно 725 758 -0.2 63% +10.1° 1 км - - - -
14:00 +14.7° В 1 10 20 км дождь облачно 725 758 -1.1 77% +10.7° 1 км - - - -
11:00 +19.2° С-З 3 - 20 км - преимущественно облачно 726 759 -1.1 42% +5.9° 1 км - - - -
08:00 +17.4° З,Ю-З 2 - 20 км - облачно 727 760 -0.5 57% +8.9° 1 км 0 Сухая (без трещин) - -
05:00 +16.5° С-З 1 - 20 км - облачно 727 761 -0.8 58% +8.1° 1 км - - - -
02:00 +18.3° З 3 - 10 км - облачно с прояснениями 728 762 -0.6 46% +6.6° 1 км - - - -
Четверг, 24 Мая
Время местн. Темп Ветер Видим Явления Облачность нижн/средн/верх Атм. давл. Влжн Точка росы ВНГО R Сост. почвы Tg s
Напр Скр Прв ур.ст ур.м изм
23:00 +19.7° З 2 - 10 км - облачно с прояснениями 729 762 -0.7 42% +6.3° 1 км - - - -
20:00 +22.9° З,С-З 5 - 20 км - облачно с прояснениями 730 762 -0.3 30% +4.2° 1 км 0 - - -
17:00 +26.5° З,С-З 6 12 20 км - переменная облачность 730 762 -0.9 19% +1.1° 1 км - - - -
14:00 +25.8° З 5 11 20 км - преимущественно облачно 731 763 -1.4 24% +4° 1 км - - - -
11:00 +21.1° З,Ю-З 3 - 20 км - преимущественно облачно 732 765 -0.5 35% +4.9° 1 км - - - -
08:00 +18.4° З 4 - 20 км - облачно 733 766 -0.2 44% +5.8° 1 км 0 Сухая (без трещин) - -
05:00 +17.1° З,Ю-З 3 - 20 км - облачно 733 766 -0.2 50% +6.6° 1 км - - - -
02:00 +19.5° З 4 - 10 км - облачно 733 766 -1.1 43% +6.7° 1 км - - - -